Estación de El Tambo INIA
Ultimos registro cada 15 minutos 61
| N° | Estación | Fecha / Hora | Temperatura | Humedad | Lluvia | Velocidad | Dirección | Radiación | Presion |
| 61 | El Tambo INIA | 08-05-2026 15:00 | 19,2 | 37 | 0 | 0,2 | 246 | 424 | 989 |
| 60 | El Tambo INIA | 08-05-2026 14:45 | 19,1 | 38,9 | 0 | 0,2 | 208 | 450 | 989 |
| 59 | El Tambo INIA | 08-05-2026 14:30 | 19,1 | 41,2 | 0 | 0,3 | 259 | 472 | 989 |
| 58 | El Tambo INIA | 08-05-2026 14:15 | 19,1 | 41,7 | 0 | 0 | 257 | 493 | 989 |
| 57 | El Tambo INIA | 08-05-2026 14:00 | 18,7 | 38,6 | 0 | 0,2 | 267 | 509 | 989 |
| 56 | El Tambo INIA | 08-05-2026 13:45 | 18,2 | 38,9 | 0 | 0,1 | 340 | 524 | 990 |
| 55 | El Tambo INIA | 08-05-2026 13:30 | 17,8 | 37,9 | 0 | 0,2 | 222 | 534 | 990 |
| 54 | El Tambo INIA | 08-05-2026 13:15 | 17,5 | 42,1 | 0 | 0,2 | 285 | 540 | 990 |
| 53 | El Tambo INIA | 08-05-2026 13:00 | 17,6 | 40,4 | 0 | 0,1 | 326 | 544 | 990 |
| 52 | El Tambo INIA | 08-05-2026 12:45 | 17,1 | 42,6 | 0 | 0,3 | 278 | 545 | 990 |
| 51 | El Tambo INIA | 08-05-2026 12:30 | 16,6 | 43,8 | 0 | 0,1 | 301 | 540 | 991 |
| 50 | El Tambo INIA | 08-05-2026 12:15 | 16,4 | 45,7 | 0 | 0,2 | 204 | 534 | 991 |
| 49 | El Tambo INIA | 08-05-2026 12:00 | 16,2 | 48,6 | 0 | 0,2 | 297 | 524 | 991 |
| 48 | El Tambo INIA | 08-05-2026 11:45 | 15,3 | 51,4 | 0 | 0,1 | 80 | 511 | 991 |
| 47 | El Tambo INIA | 08-05-2026 11:30 | 14,4 | 52,3 | 0 | 0,6 | 351 | 496 | 991 |
| 46 | El Tambo INIA | 08-05-2026 11:15 | 13,7 | 56,9 | 0 | 0,4 | 36 | 475 | 991 |
| 45 | El Tambo INIA | 08-05-2026 11:00 | 13,2 | 61,7 | 0 | 0,4 | 25 | 453 | 992 |
| 44 | El Tambo INIA | 08-05-2026 10:45 | 12,6 | 62,4 | 0 | 0,2 | 348 | 426 | 992 |
| 43 | El Tambo INIA | 08-05-2026 10:30 | 11,5 | 66,3 | 0 | 0,3 | 342 | 397 | 992 |
| 42 | El Tambo INIA | 08-05-2026 10:15 | 10,7 | 73,4 | 0 | 0,9 | 73 | 365 | 992 |
| 41 | El Tambo INIA | 08-05-2026 10:00 | 10,3 | 73,9 | 0 | 0,2 | 15 | 331 | 992 |
| 40 | El Tambo INIA | 08-05-2026 09:45 | 9,3 | 75,9 | 0 | 0,8 | 288 | 297 | 992 |
| 39 | El Tambo INIA | 08-05-2026 09:30 | 9,7 | 76,5 | 0 | 0,4 | 299 | 260 | 992 |
| 38 | El Tambo INIA | 08-05-2026 09:15 | 8,8 | 76,2 | 0 | 0,4 | 42 | 222 | 992 |
| 37 | El Tambo INIA | 08-05-2026 09:00 | 7,6 | 82,5 | 0 | 0,8 | 70 | 185 | 992 |
| 36 | El Tambo INIA | 08-05-2026 08:45 | 6,8 | 85,8 | 0 | 1,5 | 102 | 148 | 992 |
| 35 | El Tambo INIA | 08-05-2026 08:30 | 6,1 | 89,5 | 0 | 1,3 | 100 | 112 | 992 |
| 34 | El Tambo INIA | 08-05-2026 08:15 | 5,3 | 91,9 | 0 | 1,2 | 98 | 79 | 992 |
| 33 | El Tambo INIA | 08-05-2026 08:00 | 4,2 | 95,1 | 0 | 1,1 | 114 | 39 | 992 |
| 32 | El Tambo INIA | 08-05-2026 07:45 | 4,2 | 94,9 | 0 | 0,7 | 121 | 7 | 992 |
| 31 | El Tambo INIA | 08-05-2026 07:30 | 4,7 | 94,2 | 0 | 0,7 | 52 | 2 | 992 |
| 30 | El Tambo INIA | 08-05-2026 07:15 | 5,1 | 93 | 0 | 0,5 | 88 | 0 | 992 |
| 29 | El Tambo INIA | 08-05-2026 07:00 | 5,6 | 90,6 | 0 | 1,8 | 77 | 0 | 993 |
| 28 | El Tambo INIA | 08-05-2026 06:45 | 5,8 | 89,8 | 0 | 1,7 | 59 | 0 | 993 |
| 27 | El Tambo INIA | 08-05-2026 06:30 | 6 | 88,1 | 0 | 2,7 | 71 | 0 | 993 |
| 26 | El Tambo INIA | 08-05-2026 06:15 | 5,8 | 89 | 0 | 2,3 | 74 | 0 | 993 |
| 25 | El Tambo INIA | 08-05-2026 06:00 | 5,7 | 90,4 | 0 | 1,7 | 59 | 0 | 993 |
| 24 | El Tambo INIA | 08-05-2026 05:45 | 5,9 | 90 | 0 | 1,9 | 60 | 0 | 993 |
| 23 | El Tambo INIA | 08-05-2026 05:30 | 6 | 89,1 | 0 | 2 | 69 | 0 | 992 |
| 22 | El Tambo INIA | 08-05-2026 05:15 | 6,2 | 88,9 | 0 | 1,8 | 65 | 0 | 992 |
| 21 | El Tambo INIA | 08-05-2026 05:00 | 6,3 | 88,5 | 0 | 1,4 | 75 | 0 | 992 |
| 20 | El Tambo INIA | 08-05-2026 04:45 | 6,5 | 87,5 | 0 | 2 | 70 | 0 | 992 |
| 19 | El Tambo INIA | 08-05-2026 04:30 | 6,6 | 87,1 | 0 | 2,8 | 74 | 0 | 992 |
| 18 | El Tambo INIA | 08-05-2026 04:15 | 6,8 | 86,7 | 0 | 2,2 | 66 | 0 | 992 |
| 17 | El Tambo INIA | 08-05-2026 04:00 | 7 | 86,2 | 0 | 2,2 | 58 | 0 | 992 |
| 16 | El Tambo INIA | 08-05-2026 03:45 | 6,9 | 86,9 | 0 | 1,9 | 64 | 0 | 993 |
| 15 | El Tambo INIA | 08-05-2026 03:30 | 6,9 | 88,7 | 0 | 1,4 | 45 | 0 | 993 |
| 14 | El Tambo INIA | 08-05-2026 03:15 | 7,3 | 86,7 | 0 | 1,7 | 56 | 0 | 993 |
| 13 | El Tambo INIA | 08-05-2026 03:00 | 7,5 | 85,9 | 0 | 2,3 | 72 | 0 | 993 |
| 12 | El Tambo INIA | 08-05-2026 02:45 | 7,6 | 85,9 | 0 | 2,1 | 69 | 0 | 993 |
| 11 | El Tambo INIA | 08-05-2026 02:30 | 7,4 | 85,1 | 0 | 2,1 | 68 | 0 | 993 |
| 10 | El Tambo INIA | 08-05-2026 02:15 | 7,1 | 88,8 | 0 | 1,2 | 104 | 0 | 993 |
| 9 | El Tambo INIA | 08-05-2026 02:00 | 7,6 | 86,4 | 0 | 1,7 | 60 | 0 | 993 |
| 8 | El Tambo INIA | 08-05-2026 01:45 | 8,1 | 84,3 | 0 | 1,6 | 83 | 0 | 993 |
| 7 | El Tambo INIA | 08-05-2026 01:30 | 8,2 | 83 | 0 | 2,3 | 89 | 0 | 994 |
| 6 | El Tambo INIA | 08-05-2026 01:15 | 8,3 | 82,7 | 0 | 2,8 | 69 | 0 | 994 |
| 5 | El Tambo INIA | 08-05-2026 01:00 | 8,3 | 83,1 | 0 | 2,4 | 65 | 0 | 994 |
| 4 | El Tambo INIA | 08-05-2026 00:45 | 8,4 | 83,6 | 0 | 1 | 70 | 0 | 994 |
| 3 | El Tambo INIA | 08-05-2026 00:30 | 8,9 | 82 | 0 | 1,2 | 47 | 0 | 994 |
| 2 | El Tambo INIA | 08-05-2026 00:15 | 9,3 | 80,4 | 0 | 1,4 | 86 | 0 | 994 |
| 1 | El Tambo INIA | 08-05-2026 00:00 | 9,6 | 79 | 0 | 2 | 91 | 0 | 994 |